sensor_id;sensor_type;location;lat;lon;timestamp;P1;durP1;ratioP1;P2;durP2;ratioP2
33840;SDS011;20142;28.494;-16.312;2023-02-22T00:04:49;81.05;;;12.73;;
33840;SDS011;20142;28.494;-16.312;2023-02-22T00:09:51;74.88;;;11.32;;
33840;SDS011;20142;28.494;-16.312;2023-02-22T00:14:53;61.17;;;10.55;;
33840;SDS011;20142;28.494;-16.312;2023-02-22T00:19:54;83.22;;;10.88;;
33840;SDS011;20142;28.494;-16.312;2023-02-22T00:24:56;65.80;;;10.10;;
33840;SDS011;20142;28.494;-16.312;2023-02-22T00:29:58;67.88;;;9.10;;
33840;SDS011;20142;28.494;-16.312;2023-02-22T00:35:00;65.55;;;9.55;;
33840;SDS011;20142;28.494;-16.312;2023-02-22T00:40:10;66.18;;;10.25;;
33840;SDS011;20142;28.494;-16.312;2023-02-22T00:45:16;76.05;;;10.15;;
33840;SDS011;20142;28.494;-16.312;2023-02-22T00:50:22;63.17;;;10.18;;
33840;SDS011;20142;28.494;-16.312;2023-02-22T00:55:27;67.47;;;9.60;;
33840;SDS011;20142;28.494;-16.312;2023-02-22T01:00:33;70.07;;;9.30;;
33840;SDS011;20142;28.494;-16.312;2023-02-22T01:05:38;78.80;;;10.23;;
33840;SDS011;20142;28.494;-16.312;2023-02-22T01:10:40;67.18;;;9.15;;
33840;SDS011;20142;28.494;-16.312;2023-02-22T01:15:43;64.53;;;9.60;;
33840;SDS011;20142;28.494;-16.312;2023-02-22T01:20:44;77.75;;;10.75;;
33840;SDS011;20142;28.494;-16.312;2023-02-22T01:25:47;70.90;;;9.35;;
33840;SDS011;20142;28.494;-16.312;2023-02-22T01:30:49;64.22;;;10.95;;
33840;SDS011;20142;28.494;-16.312;2023-02-22T01:35:51;73.47;;;10.20;;
33840;SDS011;20142;28.494;-16.312;2023-02-22T01:40:53;72.85;;;9.68;;
33840;SDS011;20142;28.494;-16.312;2023-02-22T01:46:05;66.97;;;9.40;;
33840;SDS011;20142;28.494;-16.312;2023-02-22T01:51:35;62.85;;;9.82;;
33840;SDS011;20142;28.494;-16.312;2023-02-22T01:56:46;48.78;;;9.40;;
33840;SDS011;20142;28.494;-16.312;2023-02-22T02:02:20;62.75;;;9.15;;
33840;SDS011;20142;28.494;-16.312;2023-02-22T02:07:24;52.20;;;8.75;;
33840;SDS011;20142;28.494;-16.312;2023-02-22T02:12:27;66.88;;;9.05;;
33840;SDS011;20142;28.494;-16.312;2023-02-22T02:17:33;53.83;;;9.90;;
33840;SDS011;20142;28.494;-16.312;2023-02-22T02:39:35;60.42;;;8.38;;
33840;SDS011;20142;28.494;-16.312;2023-02-22T02:45:03;60.60;;;9.20;;
33840;SDS011;20142;28.494;-16.312;2023-02-22T02:50:14;49.97;;;8.75;;
33840;SDS011;20142;28.494;-16.312;2023-02-22T02:55:28;47.75;;;9.18;;
33840;SDS011;20142;28.494;-16.312;2023-02-22T03:00:38;49.97;;;8.25;;
33840;SDS011;20142;28.494;-16.312;2023-02-22T03:11:04;44.47;;;7.72;;
33840;SDS011;20142;28.494;-16.312;2023-02-22T03:16:31;47.30;;;8.60;;
33840;SDS011;20142;28.494;-16.312;2023-02-22T03:27:47;47.88;;;8.65;;
33840;SDS011;20142;28.494;-16.312;2023-02-22T03:32:57;50.30;;;7.43;;
33840;SDS011;20142;28.494;-16.312;2023-02-22T03:38:09;45.75;;;7.90;;
33840;SDS011;20142;28.494;-16.312;2023-02-22T03:43:15;48.38;;;7.93;;
33840;SDS011;20142;28.494;-16.312;2023-02-22T03:48:26;46.45;;;9.32;;
33840;SDS011;20142;28.494;-16.312;2023-02-22T03:53:46;46.75;;;8.57;;
33840;SDS011;20142;28.494;-16.312;2023-02-22T03:58:48;54.22;;;8.50;;
33840;SDS011;20142;28.494;-16.312;2023-02-22T04:03:50;50.17;;;7.95;;
33840;SDS011;20142;28.494;-16.312;2023-02-22T04:08:51;56.35;;;8.77;;
33840;SDS011;20142;28.494;-16.312;2023-02-22T04:13:53;49.30;;;9.23;;
33840;SDS011;20142;28.494;-16.312;2023-02-22T04:18:55;42.58;;;7.97;;
33840;SDS011;20142;28.494;-16.312;2023-02-22T04:23:57;61.30;;;9.15;;
33840;SDS011;20142;28.494;-16.312;2023-02-22T04:28:59;56.25;;;8.45;;
33840;SDS011;20142;28.494;-16.312;2023-02-22T04:34:01;64.85;;;9.25;;
33840;SDS011;20142;28.494;-16.312;2023-02-22T04:39:03;46.72;;;7.72;;
33840;SDS011;20142;28.494;-16.312;2023-02-22T04:44:05;50.63;;;8.68;;
33840;SDS011;20142;28.494;-16.312;2023-02-22T04:49:06;43.95;;;7.47;;
33840;SDS011;20142;28.494;-16.312;2023-02-22T04:54:08;55.50;;;9.30;;
33840;SDS011;20142;28.494;-16.312;2023-02-22T04:59:10;41.45;;;6.38;;
33840;SDS011;20142;28.494;-16.312;2023-02-22T05:04:11;45.50;;;7.45;;
33840;SDS011;20142;28.494;-16.312;2023-02-22T05:09:13;41.13;;;7.10;;
33840;SDS011;20142;28.494;-16.312;2023-02-22T05:14:15;52.35;;;8.70;;
33840;SDS011;20142;28.494;-16.312;2023-02-22T05:19:16;51.28;;;8.65;;
33840;SDS011;20142;28.494;-16.312;2023-02-22T05:24:18;57.83;;;8.90;;
33840;SDS011;20142;28.494;-16.312;2023-02-22T05:29:20;54.17;;;8.43;;
33840;SDS011;20142;28.494;-16.312;2023-02-22T05:34:21;50.65;;;7.75;;
33840;SDS011;20142;28.494;-16.312;2023-02-22T05:39:23;56.13;;;9.05;;
33840;SDS011;20142;28.494;-16.312;2023-02-22T05:44:25;47.30;;;7.60;;
33840;SDS011;20142;28.494;-16.312;2023-02-22T05:49:27;52.42;;;8.13;;
33840;SDS011;20142;28.494;-16.312;2023-02-22T05:54:29;51.95;;;8.00;;
33840;SDS011;20142;28.494;-16.312;2023-02-22T05:59:30;57.50;;;8.40;;
33840;SDS011;20142;28.494;-16.312;2023-02-22T06:04:32;62.10;;;8.75;;
33840;SDS011;20142;28.494;-16.312;2023-02-22T06:09:34;57.05;;;8.85;;
33840;SDS011;20142;28.494;-16.312;2023-02-22T06:14:35;44.65;;;7.90;;
33840;SDS011;20142;28.494;-16.312;2023-02-22T06:19:37;55.72;;;7.63;;
33840;SDS011;20142;28.494;-16.312;2023-02-22T06:24:40;66.47;;;8.98;;
33840;SDS011;20142;28.494;-16.312;2023-02-22T06:29:45;63.13;;;8.60;;
33840;SDS011;20142;28.494;-16.312;2023-02-22T06:34:47;52.53;;;8.27;;
33840;SDS011;20142;28.494;-16.312;2023-02-22T06:39:48;58.72;;;8.43;;
33840;SDS011;20142;28.494;-16.312;2023-02-22T06:44:50;67.10;;;9.27;;
33840;SDS011;20142;28.494;-16.312;2023-02-22T06:49:52;56.53;;;8.50;;
33840;SDS011;20142;28.494;-16.312;2023-02-22T06:54:58;71.43;;;10.20;;
33840;SDS011;20142;28.494;-16.312;2023-02-22T07:00:00;77.82;;;9.73;;
33840;SDS011;20142;28.494;-16.312;2023-02-22T07:05:02;69.28;;;10.35;;
33840;SDS011;20142;28.494;-16.312;2023-02-22T07:10:07;65.55;;;10.00;;
33840;SDS011;20142;28.494;-16.312;2023-02-22T07:15:18;71.05;;;9.13;;
33840;SDS011;20142;28.494;-16.312;2023-02-22T07:20:23;65.55;;;10.32;;
33840;SDS011;20142;28.494;-16.312;2023-02-22T07:25:27;67.60;;;10.05;;
33840;SDS011;20142;28.494;-16.312;2023-02-22T07:30:30;67.97;;;10.27;;
33840;SDS011;20142;28.494;-16.312;2023-02-22T07:35:34;76.70;;;11.15;;
33840;SDS011;20142;28.494;-16.312;2023-02-22T07:40:46;62.58;;;11.05;;
33840;SDS011;20142;28.494;-16.312;2023-02-22T07:45:48;64.43;;;9.32;;
33840;SDS011;20142;28.494;-16.312;2023-02-22T07:50:53;70.57;;;9.30;;
33840;SDS011;20142;28.494;-16.312;2023-02-22T07:55:59;73.00;;;9.27;;
33840;SDS011;20142;28.494;-16.312;2023-02-22T08:06:06;75.97;;;9.75;;
33840;SDS011;20142;28.494;-16.312;2023-02-22T08:11:09;67.28;;;9.18;;
33840;SDS011;20142;28.494;-16.312;2023-02-22T08:16:10;83.07;;;10.98;;
33840;SDS011;20142;28.494;-16.312;2023-02-22T08:21:12;82.65;;;9.82;;
33840;SDS011;20142;28.494;-16.312;2023-02-22T08:26:14;78.75;;;10.25;;
33840;SDS011;20142;28.494;-16.312;2023-02-22T08:31:18;85.13;;;10.18;;
33840;SDS011;20142;28.494;-16.312;2023-02-22T08:36:19;71.03;;;9.52;;
33840;SDS011;20142;28.494;-16.312;2023-02-22T08:41:21;69.88;;;10.48;;
33840;SDS011;20142;28.494;-16.312;2023-02-22T08:46:23;66.10;;;9.10;;
33840;SDS011;20142;28.494;-16.312;2023-02-22T08:51:24;72.53;;;9.57;;
33840;SDS011;20142;28.494;-16.312;2023-02-22T08:56:27;87.15;;;10.05;;
33840;SDS011;20142;28.494;-16.312;2023-02-22T09:01:29;63.90;;;8.90;;
33840;SDS011;20142;28.494;-16.312;2023-02-22T09:06:32;66.47;;;9.32;;
33840;SDS011;20142;28.494;-16.312;2023-02-22T09:11:34;77.55;;;9.07;;
33840;SDS011;20142;28.494;-16.312;2023-02-22T09:16:35;75.50;;;8.90;;
33840;SDS011;20142;28.494;-16.312;2023-02-22T09:21:37;65.70;;;10.13;;
33840;SDS011;20142;28.494;-16.312;2023-02-22T09:26:40;64.68;;;9.10;;
33840;SDS011;20142;28.494;-16.312;2023-02-22T09:31:48;67.28;;;9.45;;
33840;SDS011;20142;28.494;-16.312;2023-02-22T09:36:52;75.72;;;11.02;;
33840;SDS011;20142;28.494;-16.312;2023-02-22T09:47:19;78.18;;;9.38;;
33840;SDS011;20142;28.494;-16.312;2023-02-22T09:52:34;70.68;;;8.85;;
33840;SDS011;20142;28.494;-16.312;2023-02-22T09:57:41;66.13;;;10.73;;
33840;SDS011;20142;28.494;-16.312;2023-02-22T10:08:34;83.07;;;9.93;;
33840;SDS011;20142;28.494;-16.312;2023-02-22T10:30:20;77.93;;;10.02;;
33840;SDS011;20142;28.494;-16.312;2023-02-22T10:35:33;73.55;;;9.40;;
33840;SDS011;20142;28.494;-16.312;2023-02-22T10:40:37;73.13;;;10.25;;
33840;SDS011;20142;28.494;-16.312;2023-02-22T10:45:39;71.00;;;9.05;;
33840;SDS011;20142;28.494;-16.312;2023-02-22T10:50:42;84.18;;;10.82;;
33840;SDS011;20142;28.494;-16.312;2023-02-22T11:06:22;75.75;;;10.00;;
33840;SDS011;20142;28.494;-16.312;2023-02-22T11:11:24;77.72;;;10.50;;
33840;SDS011;20142;28.494;-16.312;2023-02-22T11:16:33;72.40;;;10.20;;
33840;SDS011;20142;28.494;-16.312;2023-02-22T11:21:42;65.78;;;10.38;;
33840;SDS011;20142;28.494;-16.312;2023-02-22T11:26:45;77.40;;;10.40;;
33840;SDS011;20142;28.494;-16.312;2023-02-22T11:31:50;72.45;;;10.07;;
33840;SDS011;20142;28.494;-16.312;2023-02-22T11:36:54;74.50;;;9.93;;
33840;SDS011;20142;28.494;-16.312;2023-02-22T11:41:57;83.80;;;10.02;;
33840;SDS011;20142;28.494;-16.312;2023-02-22T11:47:26;63.63;;;8.97;;
33840;SDS011;20142;28.494;-16.312;2023-02-22T11:52:32;69.78;;;9.25;;
33840;SDS011;20142;28.494;-16.312;2023-02-22T11:58:04;72.63;;;9.77;;
33840;SDS011;20142;28.494;-16.312;2023-02-22T12:14:35;68.95;;;9.60;;
33840;SDS011;20142;28.494;-16.312;2023-02-22T12:20:05;67.85;;;10.25;;
33840;SDS011;20142;28.494;-16.312;2023-02-22T12:25:25;56.05;;;7.80;;
33840;SDS011;20142;28.494;-16.312;2023-02-22T12:35:41;63.08;;;7.95;;
33840;SDS011;20142;28.494;-16.312;2023-02-22T13:14:00;62.83;;;7.70;;
33840;SDS011;20142;28.494;-16.312;2023-02-22T13:24:51;65.32;;;8.07;;
33840;SDS011;20142;28.494;-16.312;2023-02-22T13:30:19;69.38;;;8.57;;
33840;SDS011;20142;28.494;-16.312;2023-02-22T13:46:44;64.38;;;9.27;;
33840;SDS011;20142;28.494;-16.312;2023-02-22T13:52:07;67.50;;;9.95;;
33840;SDS011;20142;28.494;-16.312;2023-02-22T14:02:58;68.57;;;8.40;;
33840;SDS011;20142;28.494;-16.312;2023-02-22T14:13:31;58.35;;;7.97;;
33840;SDS011;20142;28.494;-16.312;2023-02-22T14:19:01;64.95;;;7.95;;
33840;SDS011;20142;28.494;-16.312;2023-02-22T14:24:13;58.95;;;7.70;;
33840;SDS011;20142;28.494;-16.312;2023-02-22T14:29:16;49.65;;;8.27;;
33840;SDS011;20142;28.494;-16.312;2023-02-22T14:34:21;57.10;;;8.25;;
33840;SDS011;20142;28.494;-16.312;2023-02-22T14:39:59;59.33;;;8.48;;
33840;SDS011;20142;28.494;-16.312;2023-02-22T14:45:26;56.17;;;8.98;;
33840;SDS011;20142;28.494;-16.312;2023-02-22T14:55:46;65.63;;;8.50;;
33840;SDS011;20142;28.494;-16.312;2023-02-22T15:01:40;65.30;;;9.23;;
33840;SDS011;20142;28.494;-16.312;2023-02-22T15:06:39;67.18;;;9.23;;
33840;SDS011;20142;28.494;-16.312;2023-02-22T15:11:40;55.42;;;7.63;;
33840;SDS011;20142;28.494;-16.312;2023-02-22T15:16:46;54.30;;;8.20;;
33840;SDS011;20142;28.494;-16.312;2023-02-22T15:31:52;51.65;;;7.82;;
33840;SDS011;20142;28.494;-16.312;2023-02-22T15:36:57;68.72;;;7.28;;
33840;SDS011;20142;28.494;-16.312;2023-02-22T15:42:19;57.63;;;8.68;;
33840;SDS011;20142;28.494;-16.312;2023-02-22T15:47:23;54.72;;;8.23;;
33840;SDS011;20142;28.494;-16.312;2023-02-22T21:20:39;49.45;;;5.93;;
33840;SDS011;20142;28.494;-16.312;2023-02-22T21:25:49;53.97;;;6.43;;
33840;SDS011;20142;28.494;-16.312;2023-02-22T21:35:54;33.70;;;5.38;;
33840;SDS011;20142;28.494;-16.312;2023-02-22T21:40:55;37.50;;;5.32;;
33840;SDS011;20142;28.494;-16.312;2023-02-22T21:46:01;48.35;;;6.68;;
33840;SDS011;20142;28.494;-16.312;2023-02-22T21:51:10;46.35;;;6.35;;
33840;SDS011;20142;28.494;-16.312;2023-02-22T21:56:22;39.97;;;6.63;;
33840;SDS011;20142;28.494;-16.312;2023-02-22T22:06:32;47.22;;;5.57;;
33840;SDS011;20142;28.494;-16.312;2023-02-22T22:11:35;51.47;;;7.57;;
33840;SDS011;20142;28.494;-16.312;2023-02-22T22:16:36;42.05;;;5.82;;
33840;SDS011;20142;28.494;-16.312;2023-02-22T22:21:39;48.25;;;6.57;;
33840;SDS011;20142;28.494;-16.312;2023-02-22T22:26:41;44.83;;;5.75;;
33840;SDS011;20142;28.494;-16.312;2023-02-22T22:31:44;57.95;;;6.63;;
33840;SDS011;20142;28.494;-16.312;2023-02-22T22:36:45;55.60;;;6.22;;
33840;SDS011;20142;28.494;-16.312;2023-02-22T22:41:47;46.67;;;5.63;;
33840;SDS011;20142;28.494;-16.312;2023-02-22T22:46:49;52.28;;;5.50;;
33840;SDS011;20142;28.494;-16.312;2023-02-22T22:51:54;46.65;;;5.95;;
33840;SDS011;20142;28.494;-16.312;2023-02-22T22:56:56;35.95;;;4.43;;
33840;SDS011;20142;28.494;-16.312;2023-02-22T23:01:57;37.22;;;4.55;;
33840;SDS011;20142;28.494;-16.312;2023-02-22T23:07:02;43.92;;;4.78;;
33840;SDS011;20142;28.494;-16.312;2023-02-22T23:12:06;38.42;;;5.50;;
33840;SDS011;20142;28.494;-16.312;2023-02-22T23:17:16;43.42;;;6.22;;
33840;SDS011;20142;28.494;-16.312;2023-02-22T23:22:30;38.55;;;5.68;;
33840;SDS011;20142;28.494;-16.312;2023-02-22T23:27:32;43.38;;;4.50;;
33840;SDS011;20142;28.494;-16.312;2023-02-22T23:32:34;40.10;;;5.03;;
33840;SDS011;20142;28.494;-16.312;2023-02-22T23:37:36;33.63;;;4.45;;
33840;SDS011;20142;28.494;-16.312;2023-02-22T23:42:39;26.02;;;4.43;;
33840;SDS011;20142;28.494;-16.312;2023-02-22T23:47:41;23.02;;;3.65;;
33840;SDS011;20142;28.494;-16.312;2023-02-22T23:52:43;38.83;;;4.72;;
33840;SDS011;20142;28.494;-16.312;2023-02-22T23:57:46;27.77;;;4.63;;
